createdAt,value
2023-05-04T00:00:36.611Z,17.88
2023-05-04T00:02:38.564Z,17.86
2023-05-04T00:04:41.873Z,17.87
2023-05-04T00:06:44.939Z,17.88
2023-05-04T00:08:47.650Z,17.83
2023-05-04T00:10:49.249Z,17.80
2023-05-04T00:12:51.177Z,17.79
2023-05-04T00:14:52.932Z,17.80
2023-05-04T00:16:54.814Z,17.72
2023-05-04T00:18:56.501Z,17.67
2023-05-04T00:20:58.374Z,17.55
2023-05-04T00:23:02.834Z,17.59
2023-05-04T00:25:06.811Z,17.57
2023-05-04T00:27:08.732Z,17.54
2023-05-04T00:29:10.310Z,17.53
2023-05-04T00:31:12.018Z,17.48
2023-05-04T00:33:13.772Z,17.41
2023-05-04T00:35:15.478Z,17.39
2023-05-04T00:37:18.720Z,17.31
2023-05-04T00:39:21.950Z,17.20
2023-05-04T00:41:23.627Z,17.21
2023-05-04T00:43:25.748Z,17.15
2023-05-04T00:45:29.255Z,17.08
2023-05-04T00:47:31.908Z,17.10
2023-05-04T00:49:34.549Z,17.04
2023-05-04T00:51:37.136Z,17.00
2023-05-04T00:53:39.200Z,16.94
2023-05-04T00:55:42.613Z,16.91
2023-05-04T00:57:44.622Z,16.89
2023-05-04T00:59:46.706Z,16.87
2023-05-04T01:01:55.226Z,16.85
2023-05-04T01:03:57.257Z,16.88
2023-05-04T01:06:08.273Z,16.83
2023-05-04T01:08:15.112Z,16.83
2023-05-04T01:10:22.627Z,16.77
2023-05-04T01:12:36.531Z,16.79
2023-05-04T01:14:39.586Z,16.83
2023-05-04T01:16:41.464Z,16.90
2023-05-04T01:18:43.107Z,16.96
2023-05-04T01:20:44.957Z,17.02
2023-05-04T01:22:48.429Z,17.02
2023-05-04T01:24:50.856Z,16.95
2023-05-04T01:26:56.551Z,16.86
2023-05-04T01:29:04.855Z,16.93
2023-05-04T01:31:09.425Z,16.90
2023-05-04T01:33:12.261Z,16.91
2023-05-04T01:35:14.128Z,16.90
2023-05-04T01:37:16.156Z,16.97
2023-05-04T01:39:19.456Z,17.04
2023-05-04T01:41:20.958Z,17.11
2023-05-04T01:43:22.909Z,17.20
2023-05-04T01:45:24.812Z,17.23
2023-05-04T01:47:27.088Z,17.25
2023-05-04T01:49:29.991Z,17.21
2023-05-04T01:51:31.622Z,17.20
2023-05-04T01:53:33.217Z,17.16
2023-05-04T01:55:36.390Z,17.08
2023-05-04T01:57:38.037Z,17.09
2023-05-04T01:59:39.779Z,17.16
2023-05-04T02:01:41.579Z,17.13
2023-05-04T02:03:43.518Z,17.05
2023-05-04T02:05:45.453Z,17.00
2023-05-04T02:07:47.148Z,16.95
2023-05-04T02:09:49.264Z,16.91
2023-05-04T02:11:53.463Z,16.80
2023-05-04T02:13:56.557Z,16.88
2023-05-04T02:15:58.221Z,16.89
2023-05-04T02:18:00.066Z,16.91
2023-05-04T02:20:01.857Z,16.91
2023-05-04T02:22:05.938Z,16.83
2023-05-04T02:24:07.715Z,16.78
2023-05-04T02:26:09.339Z,16.79
2023-05-04T02:28:12.329Z,16.82
2023-05-04T02:30:14.800Z,16.88
2023-05-04T02:32:19.861Z,16.87
2023-05-04T02:34:21.951Z,16.87
2023-05-04T02:36:23.580Z,16.93
2023-05-04T02:38:26.116Z,16.89
2023-05-04T02:40:28.024Z,16.86
2023-05-04T02:42:29.902Z,16.79
2023-05-04T02:44:33.166Z,16.77
2023-05-04T02:46:35.216Z,16.75
2023-05-04T02:48:38.293Z,16.72
2023-05-04T02:50:40.582Z,16.66
2023-05-04T02:52:42.517Z,16.66
2023-05-04T02:54:44.140Z,16.68
2023-05-04T02:56:46.040Z,16.74
2023-05-04T02:58:48.064Z,16.80
2023-05-04T03:00:55.269Z,16.85
2023-05-04T03:02:57.215Z,16.87
2023-05-04T03:05:01.761Z,16.87
2023-05-04T03:07:03.776Z,16.92
2023-05-04T03:09:05.520Z,16.90
2023-05-04T03:11:07.222Z,16.89
2023-05-04T03:13:08.939Z,16.82
2023-05-04T03:15:10.946Z,16.70
2023-05-04T03:17:15.551Z,16.62
2023-05-04T03:19:17.180Z,16.54
2023-05-04T03:21:19.104Z,16.40
2023-05-04T03:23:22.366Z,16.33
2023-05-04T03:25:23.997Z,16.24
2023-05-04T03:27:25.720Z,16.12
2023-05-04T03:29:29.954Z,16.06
2023-05-04T03:31:31.963Z,15.96
2023-05-04T03:33:37.348Z,15.87
2023-05-04T03:35:39.373Z,15.79
2023-05-04T03:37:41.041Z,15.70
2023-05-04T03:39:42.965Z,15.62
2023-05-04T03:41:45.200Z,15.57
2023-05-04T03:43:47.018Z,15.56
2023-05-04T03:45:48.607Z,15.64
2023-05-04T03:47:50.362Z,15.69
2023-05-04T03:49:53.589Z,15.80
2023-05-04T03:51:55.177Z,15.83
2023-05-04T03:53:59.393Z,15.84
2023-05-04T03:56:01.251Z,15.89
2023-05-04T03:58:03.326Z,15.95
2023-05-04T04:00:07.182Z,16.00
2023-05-04T04:02:09.009Z,16.05
2023-05-04T04:04:12.184Z,16.08
2023-05-04T04:06:15.331Z,16.11
2023-05-04T04:08:17.370Z,16.10
2023-05-04T04:10:19.197Z,16.16
2023-05-04T04:12:21.030Z,16.15
2023-05-04T04:14:23.233Z,16.19
2023-05-04T04:16:24.945Z,16.19
2023-05-04T04:18:26.669Z,16.25
2023-05-04T04:20:28.259Z,16.20
2023-05-04T04:22:33.304Z,16.23
2023-05-04T04:24:35.159Z,16.14
2023-05-04T04:26:36.873Z,16.09
2023-05-04T04:28:38.481Z,16.08
2023-05-04T04:30:40.313Z,16.07
2023-05-04T04:32:41.990Z,16.02
2023-05-04T04:34:43.916Z,16.00
2023-05-04T04:36:45.520Z,16.00
2023-05-04T04:38:48.686Z,16.01
2023-05-04T04:40:50.353Z,15.95
2023-05-04T04:42:52.443Z,15.93
2023-05-04T04:44:54.034Z,15.89
2023-05-04T04:46:55.995Z,15.87
2023-05-04T04:48:57.679Z,15.86
2023-05-04T04:50:59.689Z,15.86
2023-05-04T04:53:01.253Z,15.85
2023-05-04T04:55:04.794Z,15.84
2023-05-04T04:57:06.430Z,15.89
2023-05-04T04:59:09.958Z,15.92
2023-05-04T05:01:11.790Z,15.86
2023-05-04T05:03:16.324Z,15.88
2023-05-04T05:05:18.075Z,15.82
2023-05-04T05:07:19.836Z,15.74
2023-05-04T05:09:21.479Z,15.72
2023-05-04T05:11:24.429Z,15.71
2023-05-04T05:13:26.054Z,15.64
2023-05-04T05:15:27.586Z,15.61
2023-05-04T05:17:29.138Z,15.54
2023-05-04T05:19:30.988Z,15.42
2023-05-04T05:21:32.622Z,15.33
2023-05-04T05:23:34.295Z,15.30
2023-05-04T05:25:35.896Z,15.23
2023-05-04T05:27:38.821Z,15.25
2023-05-04T05:29:40.376Z,15.21
2023-05-04T05:31:41.946Z,15.16
2023-05-04T05:33:43.575Z,15.16
2023-05-04T05:35:45.168Z,15.26
2023-05-04T05:37:49.175Z,15.22
2023-05-04T05:39:50.809Z,15.24
2023-05-04T05:41:56.002Z,15.22
2023-05-04T05:43:59.071Z,15.22
2023-05-04T05:46:00.685Z,15.23
2023-05-04T05:48:02.503Z,15.24
2023-05-04T05:50:04.846Z,15.44
2023-05-04T05:52:06.938Z,15.44
2023-05-04T05:54:08.531Z,15.47
2023-05-04T05:56:10.087Z,15.54
2023-05-04T05:58:11.682Z,15.60
2023-05-04T06:00:16.528Z,15.65
2023-05-04T06:02:18.264Z,15.70
2023-05-04T06:04:20.030Z,15.73
2023-05-04T06:06:21.632Z,15.72
2023-05-04T06:08:23.286Z,15.71
2023-05-04T06:10:25.004Z,15.78
2023-05-04T06:12:26.591Z,15.85
2023-05-04T06:14:28.164Z,15.97
2023-05-04T06:16:31.150Z,16.04
2023-05-04T06:18:32.672Z,16.11
2023-05-04T06:20:34.368Z,16.19
2023-05-04T06:22:35.933Z,16.33
2023-05-04T06:24:37.493Z,16.44
2023-05-04T06:26:39.047Z,16.61
2023-05-04T06:28:40.619Z,16.74
2023-05-04T06:30:42.191Z,16.90
2023-05-04T06:32:45.245Z,16.96
2023-05-04T06:34:46.864Z,17.06
2023-05-04T06:36:48.423Z,17.18
2023-05-04T06:38:50.081Z,17.34
2023-05-04T06:40:51.712Z,17.41
2023-05-04T06:42:53.314Z,17.55
2023-05-04T06:44:55.004Z,17.65
2023-05-04T06:46:56.572Z,17.71
2023-05-04T06:48:59.474Z,17.77
2023-05-04T06:51:02.292Z,17.84
2023-05-04T06:53:07.105Z,17.93
2023-05-04T06:55:09.027Z,17.99
2023-05-04T06:57:10.812Z,18.07
2023-05-04T06:59:12.674Z,18.16
2023-05-04T07:03:16.250Z,18.37
2023-05-04T07:05:19.611Z,18.45
2023-05-04T07:07:21.277Z,18.59
2023-05-04T07:09:22.872Z,18.73
2023-05-04T07:11:24.669Z,18.79
2023-05-04T07:13:26.385Z,18.93
2023-05-04T07:15:28.246Z,18.94
2023-05-04T07:17:32.215Z,18.99
2023-05-04T07:19:34.348Z,19.00
2023-05-04T07:21:37.508Z,19.00
2023-05-04T07:23:39.300Z,19.09
2023-05-04T07:25:40.908Z,19.10
2023-05-04T07:27:42.553Z,19.19
2023-05-04T07:29:44.192Z,19.29
2023-05-04T07:31:45.826Z,19.35
2023-05-04T07:33:48.053Z,19.47
2023-05-04T07:35:49.797Z,19.55
2023-05-04T07:37:53.022Z,19.59
2023-05-04T07:39:54.664Z,19.60
2023-05-04T07:41:56.412Z,19.69
2023-05-04T07:43:58.175Z,19.81
2023-05-04T07:45:59.844Z,19.82
2023-05-04T07:48:01.501Z,19.87
2023-05-04T07:50:03.350Z,20.00
2023-05-04T07:52:05.770Z,20.10
2023-05-04T07:54:08.759Z,20.20
2023-05-04T07:56:11.566Z,20.31
2023-05-04T07:58:13.394Z,20.38
2023-05-04T08:00:15.820Z,20.42
2023-05-04T08:02:17.506Z,20.33
2023-05-04T08:04:19.587Z,20.29
2023-05-04T08:06:21.731Z,20.40
2023-05-04T08:08:23.570Z,20.53
2023-05-04T08:10:26.782Z,20.56
2023-05-04T08:12:28.388Z,20.59
2023-05-04T08:14:30.011Z,20.62
2023-05-04T08:16:31.658Z,20.71
2023-05-04T08:18:33.385Z,20.82
2023-05-04T08:20:35.084Z,20.83
2023-05-04T08:22:37.022Z,20.87
2023-05-04T08:24:38.808Z,20.98
2023-05-04T08:26:43.778Z,21.06
2023-05-04T08:28:47.079Z,21.14
2023-05-04T08:30:48.898Z,21.21
2023-05-04T08:32:50.522Z,21.22
2023-05-04T08:34:52.439Z,21.25
2023-05-04T08:36:54.054Z,21.30
2023-05-04T08:38:55.892Z,21.32
2023-05-04T08:40:57.665Z,21.35
2023-05-04T08:43:00.940Z,21.40
2023-05-04T08:45:02.837Z,21.39
2023-05-04T08:47:04.844Z,21.33
2023-05-04T08:49:09.010Z,21.35
2023-05-04T08:51:11.405Z,21.45
2023-05-04T08:53:13.129Z,21.49
2023-05-04T08:55:18.610Z,21.54
2023-05-04T08:57:22.611Z,21.57
2023-05-04T08:59:28.109Z,21.57
2023-05-04T09:01:31.287Z,21.59
2023-05-04T09:03:34.402Z,21.64
2023-05-04T09:05:36.995Z,21.69
2023-05-04T09:07:38.614Z,21.76
2023-05-04T09:09:40.641Z,21.82
2023-05-04T09:11:43.415Z,21.88
2023-05-04T09:13:45.043Z,21.93
2023-05-04T09:15:55.785Z,21.95
2023-05-04T09:17:58.628Z,21.94
2023-05-04T09:20:01.427Z,21.94
2023-05-04T09:22:13.574Z,21.99
2023-05-04T09:24:25.911Z,22.08
2023-05-04T09:26:28.802Z,22.12
2023-05-04T09:28:35.075Z,22.18
2023-05-04T09:30:36.780Z,22.20
2023-05-04T09:32:46.947Z,22.26
2023-05-04T09:34:50.011Z,22.33
2023-05-04T09:36:58.753Z,22.42
2023-05-04T09:39:11.198Z,22.56
2023-05-04T09:41:13.573Z,22.55
2023-05-04T09:43:15.256Z,22.56
2023-05-04T09:45:17.069Z,22.60
2023-05-04T09:47:18.898Z,22.61
2023-05-04T09:49:31.308Z,22.69
2023-05-04T09:51:32.947Z,22.68
2023-05-04T09:53:40.092Z,22.72
2023-05-04T09:55:45.221Z,22.73
2023-05-04T09:57:48.117Z,22.74
2023-05-04T09:59:50.468Z,22.75
2023-05-04T10:01:53.681Z,22.78
2023-05-04T10:03:58.664Z,22.81
2023-05-04T10:06:04.656Z,22.84
2023-05-04T10:08:08.213Z,22.93
2023-05-04T10:10:12.137Z,22.92
2023-05-04T10:12:13.813Z,22.92
2023-05-04T10:14:15.529Z,22.89
2023-05-04T10:16:27.414Z,22.96
2023-05-04T10:18:41.629Z,23.01
2023-05-04T10:21:06.605Z,23.14
2023-05-04T10:23:32.188Z,23.09
2023-05-04T10:25:59.106Z,23.20
2023-05-04T10:28:10.025Z,23.24
2023-05-04T10:30:14.980Z,23.26
2023-05-04T10:32:20.506Z,23.31
2023-05-04T10:34:29.457Z,23.35
2023-05-04T10:36:36.960Z,23.40
2023-05-04T10:38:39.668Z,23.32
2023-05-04T10:40:41.318Z,23.40
2023-05-04T10:42:43.404Z,23.47
2023-05-04T10:44:52.561Z,23.54
2023-05-04T10:47:00.342Z,23.60
2023-05-04T10:49:02.128Z,23.59
2023-05-04T10:51:03.943Z,23.58
2023-05-04T10:53:07.255Z,23.66
2023-05-04T10:55:09.061Z,23.76
2023-05-04T10:57:12.040Z,23.80
2023-05-04T10:59:13.729Z,23.74
2023-05-04T11:01:22.964Z,23.66
2023-05-04T11:03:25.194Z,23.70
2023-05-04T11:05:27.315Z,23.70
2023-05-04T11:07:35.937Z,23.76
2023-05-04T11:09:45.664Z,23.79
2023-05-04T11:11:48.342Z,23.83
2023-05-04T11:13:50.643Z,23.86
2023-05-04T11:15:52.435Z,23.91
2023-05-04T11:17:54.346Z,23.85
2023-05-04T11:19:56.234Z,23.85
2023-05-04T11:22:01.386Z,23.86
2023-05-04T11:24:06.447Z,23.84
2023-05-04T11:26:12.766Z,24.00
2023-05-04T11:28:14.806Z,24.10
2023-05-04T11:30:18.586Z,24.13
2023-05-04T11:32:20.325Z,24.22
2023-05-04T11:34:22.060Z,24.37
2023-05-04T11:36:30.482Z,24.40
2023-05-04T11:38:32.337Z,24.47
2023-05-04T11:40:35.431Z,24.45
2023-05-04T11:42:39.081Z,24.45
2023-05-04T11:44:40.963Z,24.37
2023-05-04T11:46:42.672Z,24.37
2023-05-04T11:48:44.828Z,24.36
2023-05-04T11:50:46.877Z,24.35
2023-05-04T11:52:49.190Z,24.38
2023-05-04T11:54:57.541Z,24.42
2023-05-04T11:57:04.010Z,24.44
2023-05-04T11:59:11.290Z,24.42
2023-05-04T12:01:15.898Z,24.49
2023-05-04T12:03:25.953Z,24.62
2023-05-04T12:05:31.901Z,24.76
2023-05-04T12:07:36.564Z,24.96
2023-05-04T12:09:44.382Z,25.14
2023-05-04T12:11:53.832Z,25.26
2023-05-04T12:14:03.237Z,25.34
2023-05-04T12:16:13.804Z,25.56
2023-05-04T12:18:30.518Z,25.88
2023-05-04T12:20:35.029Z,26.09
2023-05-04T12:22:36.891Z,26.27
2023-05-04T12:24:38.509Z,26.44
2023-05-04T12:26:43.306Z,26.67
2023-05-04T12:28:45.001Z,27.07
2023-05-04T12:30:46.820Z,27.49
2023-05-04T12:32:50.857Z,27.96
2023-05-04T12:34:52.462Z,28.64
2023-05-04T12:36:54.328Z,28.90
2023-05-04T12:38:55.992Z,28.88
2023-05-04T12:40:58.228Z,29.31
2023-05-04T12:43:01.550Z,29.85
2023-05-04T12:45:03.850Z,29.98
2023-05-04T12:47:05.980Z,30.19
2023-05-04T12:49:09.607Z,30.24
2023-05-04T12:51:11.387Z,30.32
2023-05-04T12:53:13.212Z,30.68
2023-05-04T12:55:14.995Z,30.99
2023-05-04T12:57:16.671Z,31.12
2023-05-04T12:59:18.407Z,31.44
2023-05-04T13:01:20.421Z,31.70
2023-05-04T13:03:22.270Z,31.96
2023-05-04T13:05:26.211Z,32.05
2023-05-04T13:07:27.784Z,32.13
2023-05-04T13:09:29.431Z,32.31
2023-05-04T13:11:31.186Z,32.56
2023-05-04T13:13:32.897Z,32.57
2023-05-04T13:15:34.621Z,32.62
2023-05-04T13:17:36.547Z,32.68
2023-05-04T13:19:38.357Z,32.81
2023-05-04T13:21:41.390Z,32.67
2023-05-04T13:23:43.030Z,32.50
2023-05-04T13:25:44.706Z,32.45
2023-05-04T13:27:46.294Z,32.54
2023-05-04T13:29:47.925Z,32.64
2023-05-04T13:31:50.347Z,32.94
2023-05-04T13:33:54.021Z,33.18
2023-05-04T13:35:55.570Z,33.47
2023-05-04T13:37:58.605Z,33.57
2023-05-04T13:40:00.339Z,33.61
2023-05-04T13:42:01.926Z,33.37
2023-05-04T13:44:03.553Z,33.28
2023-05-04T13:46:05.567Z,33.47
2023-05-04T13:48:07.394Z,33.63
2023-05-04T13:50:09.683Z,33.95
2023-05-04T13:52:11.458Z,34.13
2023-05-04T13:54:14.454Z,34.08
2023-05-04T13:56:16.093Z,33.89
2023-05-04T13:58:17.951Z,33.99
2023-05-04T14:00:20.378Z,33.98
2023-05-04T14:02:22.351Z,34.01
2023-05-04T14:04:24.410Z,33.33
2023-05-04T14:06:26.192Z,32.36
2023-05-04T14:08:27.830Z,31.72
2023-05-04T14:10:30.952Z,31.50
2023-05-04T14:12:32.560Z,31.36
2023-05-04T14:14:34.172Z,31.01
2023-05-04T14:16:37.463Z,30.68
2023-05-04T14:18:39.239Z,30.23
2023-05-04T14:20:40.867Z,29.97
2023-05-04T14:22:42.499Z,29.66
2023-05-04T14:24:44.199Z,29.49
2023-05-04T14:26:47.360Z,29.48
2023-05-04T14:28:48.956Z,29.22
2023-05-04T14:30:50.840Z,29.08
2023-05-04T14:32:54.053Z,29.13
2023-05-04T14:35:00.365Z,29.11
2023-05-04T14:37:02.054Z,28.93
2023-05-04T14:39:04.010Z,28.70
2023-05-04T14:41:06.271Z,28.62
2023-05-04T14:43:09.302Z,28.32
2023-05-04T14:45:11.831Z,28.28
2023-05-04T14:47:13.505Z,28.11
2023-05-04T14:49:21.713Z,27.99
2023-05-04T14:51:30.662Z,27.81
2023-05-04T14:53:32.630Z,27.70
2023-05-04T14:55:34.261Z,27.65
2023-05-04T14:57:35.877Z,27.64
2023-05-04T14:59:39.114Z,27.60
2023-05-04T15:01:40.833Z,27.59
2023-05-04T15:03:42.851Z,27.57
2023-05-04T15:05:44.947Z,27.50
2023-05-04T15:07:49.749Z,27.44
2023-05-04T15:09:54.545Z,27.38
2023-05-04T15:11:58.105Z,27.30
2023-05-04T15:13:59.875Z,27.22
2023-05-04T15:16:03.104Z,27.28
2023-05-04T15:18:05.156Z,27.28
2023-05-04T15:20:08.392Z,27.20
2023-05-04T15:22:10.366Z,27.15
2023-05-04T15:24:12.033Z,27.00
2023-05-04T15:26:13.716Z,26.97
2023-05-04T15:28:15.350Z,26.98
2023-05-04T15:30:17.777Z,26.99
2023-05-04T15:32:20.922Z,27.00
2023-05-04T15:34:22.569Z,26.92
2023-05-04T15:36:24.186Z,26.93
2023-05-04T15:38:26.114Z,26.96
2023-05-04T15:40:28.320Z,26.90
2023-05-04T15:42:33.114Z,26.89
2023-05-04T15:44:34.711Z,26.87
2023-05-04T15:46:36.433Z,26.85
2023-05-04T15:48:41.172Z,26.75
2023-05-04T15:50:42.831Z,26.71
2023-05-04T15:52:49.215Z,26.71
2023-05-04T15:54:50.941Z,26.68
2023-05-04T15:56:55.876Z,26.65
2023-05-04T15:58:57.509Z,26.69
2023-05-04T16:00:59.225Z,26.71
2023-05-04T16:03:00.980Z,26.69
2023-05-04T16:05:04.182Z,26.69
2023-05-04T16:07:06.026Z,26.67
2023-05-04T16:09:14.356Z,26.66
2023-05-04T16:11:16.138Z,26.67
2023-05-04T16:13:18.107Z,26.70
2023-05-04T16:15:19.970Z,26.62
2023-05-04T16:17:22.328Z,26.63
2023-05-04T16:19:24.192Z,26.62
2023-05-04T16:21:33.022Z,26.67
2023-05-04T16:23:34.648Z,26.70
2023-05-04T16:25:38.991Z,26.64
2023-05-04T16:27:44.097Z,26.60
2023-05-04T16:29:46.119Z,26.58
2023-05-04T16:31:47.941Z,26.61
2023-05-04T16:33:51.992Z,26.63
2023-05-04T16:35:53.951Z,26.68
2023-05-04T16:37:57.254Z,26.66
2023-05-04T16:39:59.002Z,26.61
2023-05-04T16:42:00.857Z,26.56
2023-05-04T16:44:02.560Z,26.56
2023-05-04T16:46:04.559Z,26.54
2023-05-04T16:48:06.655Z,26.50
2023-05-04T16:50:09.208Z,26.48
2023-05-04T16:52:10.897Z,26.45
2023-05-04T16:54:18.353Z,26.43
2023-05-04T16:56:19.920Z,26.37
2023-05-04T16:58:25.051Z,26.34
2023-05-04T17:00:36.066Z,26.33
2023-05-04T17:02:37.743Z,26.21
2023-05-04T17:04:39.384Z,26.14
2023-05-04T17:06:43.525Z,26.14
2023-05-04T17:08:45.325Z,26.20
2023-05-04T17:10:48.312Z,26.24
2023-05-04T17:13:00.925Z,26.25
2023-05-04T17:15:08.029Z,26.25
2023-05-04T17:17:13.720Z,26.21
2023-05-04T17:19:15.505Z,26.18
2023-05-04T17:21:17.126Z,26.08
2023-05-04T17:23:18.715Z,26.05
2023-05-04T17:25:20.285Z,26.04
2023-05-04T17:27:23.371Z,26.03
2023-05-04T17:29:28.094Z,25.99
2023-05-04T17:31:29.937Z,25.98
2023-05-04T17:33:33.453Z,25.90
2023-05-04T17:35:35.364Z,25.82
2023-05-04T17:37:36.972Z,25.79
2023-05-04T17:39:38.574Z,25.77
2023-05-04T17:41:40.229Z,25.75
2023-05-04T17:43:43.251Z,25.68
2023-05-04T17:45:54.289Z,25.64
2023-05-04T17:47:57.486Z,25.61
2023-05-04T17:49:59.080Z,25.61
2023-05-04T17:52:00.912Z,25.64
2023-05-04T17:54:02.755Z,25.66
2023-05-04T17:56:04.955Z,25.62
2023-05-04T17:58:06.869Z,25.60
2023-05-04T18:00:11.460Z,25.63
2023-05-04T18:02:13.262Z,25.62
2023-05-04T18:04:15.210Z,25.61
2023-05-04T18:06:16.756Z,25.61
2023-05-04T18:08:18.315Z,25.52
2023-05-04T18:10:21.048Z,25.58
2023-05-04T18:12:26.036Z,25.58
2023-05-04T18:14:29.564Z,25.57
2023-05-04T18:16:32.918Z,25.61
2023-05-04T18:18:35.203Z,25.61
2023-05-04T18:20:37.176Z,25.55
2023-05-04T18:22:38.864Z,25.47
2023-05-04T18:24:40.553Z,25.39
2023-05-04T18:26:42.506Z,25.38
2023-05-04T18:28:44.391Z,25.32
2023-05-04T18:30:46.396Z,25.30
2023-05-04T18:32:49.429Z,25.30
2023-05-04T18:34:51.380Z,25.29
2023-05-04T18:36:53.264Z,25.26
2023-05-04T18:38:54.920Z,25.22
2023-05-04T18:40:56.761Z,25.17
2023-05-04T18:42:58.502Z,25.12
2023-05-04T18:45:01.358Z,25.09
2023-05-04T18:47:03.126Z,25.05
2023-05-04T18:49:07.670Z,25.02
2023-05-04T18:51:09.461Z,24.98
2023-05-04T18:53:15.490Z,24.95
2023-05-04T18:55:19.110Z,24.95
2023-05-04T18:57:20.775Z,24.88
2023-05-04T18:59:22.428Z,24.86
2023-05-04T19:01:24.548Z,24.89
2023-05-04T19:03:26.336Z,24.85
2023-05-04T19:05:31.627Z,24.80
2023-05-04T19:07:35.022Z,24.84
2023-05-04T19:09:36.760Z,24.84
2023-05-04T19:11:38.738Z,24.72
2023-05-04T19:13:42.985Z,24.65
2023-05-04T19:15:45.171Z,24.60
2023-05-04T19:17:47.209Z,24.62
2023-05-04T19:19:49.345Z,24.60
2023-05-04T19:21:52.713Z,24.55
2023-05-04T19:23:54.394Z,24.48
2023-05-04T19:25:56.315Z,24.44
2023-05-04T19:27:58.253Z,24.41
2023-05-04T19:30:00.006Z,24.39
2023-05-04T19:32:12.066Z,24.37
2023-05-04T19:34:18.081Z,24.30
2023-05-04T19:36:20.129Z,24.30
2023-05-04T19:38:25.464Z,24.30
2023-05-04T19:40:27.145Z,24.23
2023-05-04T19:42:28.771Z,24.22
2023-05-04T19:44:32.673Z,24.19
2023-05-04T19:46:34.365Z,24.15
2023-05-04T19:48:38.433Z,24.11
2023-05-04T19:50:40.131Z,24.10
2023-05-04T19:52:42.058Z,24.07
2023-05-04T19:54:47.578Z,24.05
2023-05-04T19:56:49.199Z,24.01
2023-05-04T19:58:51.194Z,24.00
2023-05-04T20:00:53.000Z,24.00
2023-05-04T20:02:55.075Z,24.02
2023-05-04T20:04:56.956Z,23.99
2023-05-04T20:06:59.109Z,23.90
2023-05-04T20:09:00.875Z,23.85
2023-05-04T20:11:06.331Z,23.80
2023-05-04T20:13:08.647Z,23.75
2023-05-04T20:15:10.382Z,23.73
2023-05-04T20:17:13.811Z,23.71
2023-05-04T20:19:17.617Z,23.67
2023-05-04T20:21:19.316Z,23.69
2023-05-04T20:23:21.377Z,23.69
2023-05-04T20:25:23.357Z,23.71
2023-05-04T20:27:26.809Z,23.68
2023-05-04T20:29:28.900Z,23.70
2023-05-04T20:31:30.612Z,23.70
2023-05-04T20:33:32.875Z,23.64
2023-05-04T20:35:34.733Z,23.67
2023-05-04T20:37:36.375Z,23.67
2023-05-04T20:39:38.105Z,23.64
2023-05-04T20:41:39.705Z,23.61
2023-05-04T20:43:42.697Z,23.60
2023-05-04T20:45:44.438Z,23.60
2023-05-04T20:47:46.221Z,23.61
2023-05-04T20:49:49.516Z,23.56
2023-05-04T20:51:51.216Z,23.46
2023-05-04T20:53:52.874Z,23.36
2023-05-04T20:55:54.910Z,23.26
2023-05-04T20:57:57.054Z,23.26
2023-05-04T21:00:01.224Z,23.20
2023-05-04T21:02:03.366Z,23.15
2023-05-04T21:04:05.850Z,23.15
2023-05-04T21:06:08.153Z,23.17
2023-05-04T21:08:12.254Z,23.16
2023-05-04T21:10:13.897Z,23.15
2023-05-04T21:12:15.605Z,23.13
2023-05-04T21:14:18.108Z,23.13
2023-05-04T21:16:21.292Z,23.05
2023-05-04T21:18:23.604Z,23.00
2023-05-04T21:20:25.458Z,22.92
2023-05-04T21:22:27.326Z,22.85
2023-05-04T21:24:28.909Z,22.81
2023-05-04T21:26:30.567Z,22.73
2023-05-04T21:28:32.734Z,22.74
2023-05-04T21:30:34.755Z,22.69
2023-05-04T21:32:38.255Z,22.66
2023-05-04T21:34:39.861Z,22.61
2023-05-04T21:36:42.128Z,22.54
2023-05-04T21:38:43.866Z,22.53
2023-05-04T21:40:45.652Z,22.48
2023-05-04T21:42:48.039Z,22.45
2023-05-04T21:44:53.866Z,22.46
2023-05-04T21:46:56.145Z,22.39
2023-05-04T21:48:59.202Z,22.37
2023-05-04T21:51:01.270Z,22.32
2023-05-04T21:53:03.070Z,22.31
2023-05-04T21:55:05.552Z,22.31
2023-05-04T21:57:07.125Z,22.27
2023-05-04T21:59:08.793Z,22.24
2023-05-04T22:01:15.460Z,22.27
2023-05-04T22:03:17.163Z,22.19
2023-05-04T22:05:21.956Z,22.10
2023-05-04T22:07:23.635Z,22.07
2023-05-04T22:09:26.150Z,22.01
2023-05-04T22:11:27.942Z,21.95
2023-05-04T22:13:29.549Z,21.90
2023-05-04T22:15:38.395Z,21.86
2023-05-04T22:17:48.256Z,21.80
2023-05-04T22:19:49.871Z,21.74
2023-05-04T22:21:52.941Z,21.66
2023-05-04T22:23:54.782Z,21.58
2023-05-04T22:25:56.507Z,21.51
2023-05-04T22:27:58.292Z,21.41
2023-05-04T22:29:59.946Z,21.40
2023-05-04T22:32:01.556Z,21.38
2023-05-04T22:34:03.281Z,21.37
2023-05-04T22:36:05.466Z,21.43
2023-05-04T22:38:08.841Z,21.50
2023-05-04T22:40:11.300Z,21.47
2023-05-04T22:42:13.029Z,21.43
2023-05-04T22:44:14.544Z,21.40
2023-05-04T22:46:17.471Z,21.41
2023-05-04T22:48:19.171Z,21.35
2023-05-04T22:50:21.290Z,21.31
2023-05-04T22:52:23.914Z,21.35
2023-05-04T22:54:27.230Z,21.31
2023-05-04T22:56:28.811Z,21.40
2023-05-04T22:58:30.653Z,21.38
2023-05-04T23:00:32.741Z,21.37
2023-05-04T23:02:34.525Z,21.27
2023-05-04T23:04:36.263Z,21.24
2023-05-04T23:06:38.210Z,21.26
2023-05-04T23:08:39.847Z,21.32
2023-05-04T23:10:46.044Z,21.32
2023-05-04T23:12:47.976Z,21.26
2023-05-04T23:14:50.414Z,21.21
2023-05-04T23:16:52.454Z,21.15
2023-05-04T23:18:54.182Z,21.20
2023-05-04T23:20:55.937Z,21.22
2023-05-04T23:22:57.681Z,21.15
2023-05-04T23:24:59.617Z,21.03
2023-05-04T23:27:03.041Z,21.06
2023-05-04T23:29:05.099Z,21.10
2023-05-04T23:31:07.162Z,21.08
2023-05-04T23:33:09.052Z,21.05
2023-05-04T23:35:10.860Z,21.01
2023-05-04T23:37:12.603Z,20.98
2023-05-04T23:39:14.302Z,20.98
2023-05-04T23:41:17.221Z,20.90
2023-05-04T23:43:21.443Z,20.87
2023-05-04T23:45:23.106Z,20.84
2023-05-04T23:47:24.966Z,20.87
2023-05-04T23:49:26.807Z,20.85
2023-05-04T23:51:28.464Z,20.78
2023-05-04T23:53:30.521Z,20.79
2023-05-04T23:57:33.916Z,20.81
2023-05-04T23:59:36.964Z,20.68
